Time;durP1;ratioP1;P1;durP2;ratioP2;P2;SDS_P1;SDS_P2;PMS_P1;PMS_P2;Temp;Humidity;BMP_temperature;BMP_pressure;BME280_temperature;BME280_humidity;BME280_pressure;Samples;Min_cycle;Max_cycle;Signal;HPM_P1;HPM_P2
2023/05/16 00:02:04;;;;;;;16.08;2.42;;;9.50;99.90;;;;;;4951696;29;20154;-75
2023/05/16 00:04:31;;;;;;;15.32;2.40;;;9.50;99.90;;;;;;4950387;29;20102;-75
2023/05/16 00:06:57;;;;;;;17.02;2.80;;;9.50;99.90;;;;;;4943307;29;20030;-75
2023/05/16 00:09:23;;;;;;;14.30;2.40;;;9.50;99.90;;;;;;4944443;29;20023;-75
2023/05/16 00:11:49;;;;;;;14.55;2.33;;;9.50;99.90;;;;;;4947993;29;20079;-75
2023/05/16 00:14:15;;;;;;;15.35;2.35;;;9.50;99.90;;;;;;4949800;29;20090;-75
2023/05/16 00:16:40;;;;;;;16.52;2.58;;;9.50;99.90;;;;;;4936073;28;20071;-75
2023/05/16 00:19:06;;;;;;;20.38;2.88;;;9.50;99.90;;;;;;4950520;29;20095;-75
2023/05/16 00:21:32;;;;;;;11.00;2.40;;;9.50;99.90;;;;;;4940263;29;20107;-75
2023/05/16 00:23:57;;;;;;;16.83;3.25;;;9.40;99.90;;;;;;4954653;29;20031;-75
2023/05/16 00:26:23;;;;;;;17.50;2.53;;;9.40;99.90;;;;;;4954125;29;20473;-75
2023/05/16 00:28:49;;;;;;;18.70;3.15;;;9.50;99.90;;;;;;4949626;28;20063;-75
2023/05/16 00:31:14;;;;;;;20.90;2.95;;;9.50;99.90;;;;;;4942946;29;20035;-75
2023/05/16 00:33:40;;;;;;;17.95;2.33;;;9.40;99.90;;;;;;4950401;28;20054;-75
2023/05/16 00:36:06;;;;;;;16.55;2.40;;;9.40;99.90;;;;;;4952814;29;20073;-75
2023/05/16 00:38:31;;;;;;;21.58;2.67;;;9.40;99.90;;;;;;4948608;28;20106;-75
2023/05/16 00:40:57;;;;;;;14.13;2.40;;;9.40;99.90;;;;;;4946926;29;20027;-75
2023/05/16 00:43:23;;;;;;;15.32;2.78;;;9.40;99.90;;;;;;4953688;28;20073;-75
2023/05/16 00:45:48;;;;;;;18.77;2.45;;;9.40;99.90;;;;;;4953742;28;20475;-75
2023/05/16 00:48:14;;;;;;;16.30;2.72;;;9.30;99.90;;;;;;4949685;29;20608;-75
2023/05/16 00:50:40;;;;;;;12.40;2.08;;;9.30;99.90;;;;;;4950309;29;20035;-75
2023/05/16 00:53:06;;;;;;;14.32;2.28;;;9.30;99.90;;;;;;4952484;29;20035;-75
2023/05/16 00:55:31;;;;;;;14.35;2.20;;;9.30;99.90;;;;;;4953044;28;20097;-75
2023/05/16 00:57:58;;;;;;;19.08;2.70;;;9.30;99.90;;;;;;4952744;28;20390;-75
2023/05/16 01:00:24;;;;;;;17.23;2.58;;;9.20;99.90;;;;;;4951774;29;20047;-75
2023/05/16 01:02:52;;;;;;;14.38;2.70;;;9.20;99.90;;;;;;4952480;29;20494;-75
2023/05/16 01:05:18;;;;;;;20.95;2.55;;;9.20;99.90;;;;;;4949066;28;20074;-75
2023/05/16 01:07:44;;;;;;;12.30;2.35;;;9.20;99.90;;;;;;4949619;29;20027;-75
2023/05/16 01:10:10;;;;;;;18.35;2.40;;;9.20;99.90;;;;;;4947625;28;20033;-75
2023/05/16 01:12:37;;;;;;;18.80;2.55;;;9.20;99.90;;;;;;4946448;28;20510;-75
2023/05/16 01:15:13;;;;;;;15.63;2.28;;;9.20;99.90;;;;;;4952164;29;20059;-75
2023/05/16 01:17:48;;;;;;;22.58;2.25;;;9.10;99.90;;;;;;4952151;29;20033;-76
2023/05/16 01:20:25;;;;;;;16.25;2.17;;;9.10;99.90;;;;;;4937216;29;20102;-75
2023/05/16 01:22:57;;;;;;;14.82;2.30;;;9.10;99.90;;;;;;4960412;28;20035;-75
2023/05/16 01:25:32;;;;;;;14.70;2.25;;;9.10;99.90;;;;;;4938877;28;20032;-75
2023/05/16 01:27:58;;;;;;;15.57;2.13;;;9.10;99.90;;;;;;4949490;29;20525;-75
2023/05/16 01:30:24;;;;;;;20.55;2.45;;;9.10;99.90;;;;;;4942982;29;20082;-75
2023/05/16 01:32:50;;;;;;;16.20;2.80;;;9.00;99.90;;;;;;4947887;28;20483;-75
2023/05/16 01:35:16;;;;;;;14.95;2.30;;;9.00;99.90;;;;;;4951707;29;20142;-75
2023/05/16 01:37:51;;;;;;;17.13;2.58;;;9.00;99.90;;;;;;4952206;29;20019;-75
2023/05/16 01:40:46;;;;;;;13.30;2.33;;;9.00;99.90;;;;;;4941884;28;20085;-75
2023/05/16 01:43:16;;;;;;;12.37;2.00;;;9.10;99.90;;;;;;4948197;28;20477;-75
2023/05/16 01:45:50;;;;;;;19.90;2.25;;;9.00;99.90;;;;;;4945891;28;20291;-75
2023/05/16 01:48:25;;;;;;;17.92;3.00;;;9.00;99.90;;;;;;4948374;29;20094;-75
2023/05/16 01:50:56;;;;;;;13.73;1.88;;;9.00;99.90;;;;;;4939637;29;20028;-75
2023/05/16 01:53:31;;;;;;;14.82;2.38;;;9.00;99.90;;;;;;4951768;28;20031;-75
2023/05/16 01:56:00;;;;;;;14.23;2.50;;;9.00;99.90;;;;;;4950045;28;20031;-75
2023/05/16 01:58:29;;;;;;;13.93;1.90;;;9.00;99.90;;;;;;4945265;29;20028;-75
2023/05/16 02:01:01;;;;;;;14.00;1.83;;;9.00;99.90;;;;;;4941071;28;20196;-75
2023/05/16 02:03:27;;;;;;;18.08;2.38;;;9.00;99.90;;;;;;4949824;29;20089;-75
2023/05/16 02:05:52;;;;;;;17.33;2.35;;;9.00;99.90;;;;;;4942495;29;20114;-75
2023/05/16 02:08:18;;;;;;;15.02;2.50;;;9.00;99.90;;;;;;4947940;28;20101;-75
2023/05/16 02:10:44;;;;;;;16.83;2.33;;;9.00;99.90;;;;;;4949651;28;20032;-75
2023/05/16 02:13:09;;;;;;;16.88;2.55;;;9.00;99.90;;;;;;4945286;28;20031;-75
2023/05/16 02:15:35;;;;;;;11.88;2.08;;;9.00;99.90;;;;;;4946519;29;20031;-75
2023/05/16 02:18:00;;;;;;;15.93;2.30;;;9.00;99.90;;;;;;4949566;29;20054;-75
2023/05/16 02:20:26;;;;;;;18.42;2.67;;;9.00;99.90;;;;;;4953138;28;20402;-75
2023/05/16 02:22:52;;;;;;;11.65;1.58;;;9.00;99.90;;;;;;4947487;29;20027;-75
2023/05/16 02:25:18;;;;;;;15.60;2.20;;;9.00;99.90;;;;;;4945561;29;20383;-75
2023/05/16 02:27:43;;;;;;;14.85;2.15;;;9.00;99.90;;;;;;4949771;29;20035;-75
2023/05/16 02:30:12;;;;;;;9.48;1.92;;;9.00;99.90;;;;;;4951296;29;20027;-75
2023/05/16 02:32:39;;;;;;;16.77;2.05;;;8.90;99.90;;;;;;4944873;28;20032;-75
2023/05/16 02:35:05;;;;;;;12.73;2.20;;;8.90;99.90;;;;;;4950306;29;20024;-75
2023/05/16 02:37:31;;;;;;;14.52;2.10;;;8.90;99.90;;;;;;4941869;28;20079;-75
2023/05/16 02:39:56;;;;;;;16.25;2.35;;;8.90;99.90;;;;;;4947576;28;20020;-75
2023/05/16 02:42:22;;;;;;;19.23;2.35;;;8.90;99.90;;;;;;4948912;29;20034;-75
2023/05/16 02:44:48;;;;;;;13.73;2.20;;;8.90;99.90;;;;;;4946773;29;20035;-75
2023/05/16 02:47:14;;;;;;;12.57;1.80;;;8.90;99.90;;;;;;4945093;29;20027;-75
2023/05/16 02:49:39;;;;;;;14.45;2.15;;;9.00;99.90;;;;;;4952843;28;20490;-75
2023/05/16 02:52:06;;;;;;;17.65;1.92;;;9.00;99.90;;;;;;4948387;29;20440;-75
2023/05/16 02:54:32;;;;;;;15.05;2.30;;;9.00;99.90;;;;;;4940218;29;20043;-75
2023/05/16 02:56:58;;;;;;;16.25;2.15;;;9.00;99.90;;;;;;4939655;29;20055;-75
2023/05/16 02:59:23;;;;;;;11.15;1.90;;;9.10;99.90;;;;;;4942284;28;20047;-75
2023/05/16 03:01:49;;;;;;;16.60;2.00;;;9.10;99.90;;;;;;4944123;29;20039;-75
2023/05/16 03:04:15;;;;;;;12.05;1.85;;;9.00;99.90;;;;;;4951743;28;20031;-75
2023/05/16 03:06:41;;;;;;;13.15;2.40;;;9.00;99.90;;;;;;4950574;28;20506;-75
2023/05/16 03:09:06;;;;;;;16.00;2.55;;;9.00;99.90;;;;;;4949728;28;20028;-76
2023/05/16 03:11:32;;;;;;;23.08;2.55;;;9.00;99.90;;;;;;4948627;29;20062;-75
2023/05/16 03:13:58;;;;;;;11.80;1.90;;;9.00;99.90;;;;;;4953612;28;20038;-76
2023/05/16 03:16:24;;;;;;;19.42;2.30;;;9.00;99.90;;;;;;4951403;28;20106;-75
2023/05/16 03:18:50;;;;;;;16.20;2.33;;;8.90;99.90;;;;;;4948495;28;20114;-75
2023/05/16 03:21:16;;;;;;;15.95;2.40;;;8.90;99.90;;;;;;4943626;29;20478;-76
2023/05/16 03:23:42;;;;;;;16.20;2.45;;;8.90;99.90;;;;;;4953087;28;20035;-75
2023/05/16 03:26:08;;;;;;;12.57;2.67;;;8.90;99.90;;;;;;4952791;29;20525;-75
2023/05/16 03:28:33;;;;;;;12.48;2.17;;;9.00;99.90;;;;;;4945722;29;20043;-75
2023/05/16 03:30:59;;;;;;;14.38;2.13;;;8.90;99.90;;;;;;4951532;29;20035;-76
2023/05/16 03:33:25;;;;;;;18.52;2.10;;;8.90;99.90;;;;;;4943415;29;20028;-75
2023/05/16 03:35:51;;;;;;;10.60;2.25;;;9.00;99.90;;;;;;4943370;29;20027;-75
2023/05/16 03:38:16;;;;;;;12.35;2.20;;;8.90;99.90;;;;;;4948855;28;20047;-75
2023/05/16 03:40:42;;;;;;;13.60;2.30;;;8.90;99.90;;;;;;4948744;29;20039;-75
2023/05/16 03:43:08;;;;;;;19.05;2.42;;;8.90;99.90;;;;;;4951467;29;20074;-75
2023/05/16 03:45:34;;;;;;;18.23;2.47;;;8.90;99.90;;;;;;4940892;29;20035;-75
2023/05/16 03:47:59;;;;;;;17.48;2.30;;;9.00;99.90;;;;;;4940471;29;20023;-75
2023/05/16 03:50:25;;;;;;;15.57;2.13;;;9.00;99.90;;;;;;4939495;28;20416;-75
2023/05/16 03:52:52;;;;;;;15.18;2.42;;;9.00;99.90;;;;;;4942156;29;20027;-75
2023/05/16 03:55:20;;;;;;;16.42;2.67;;;9.00;99.90;;;;;;4949153;29;20079;-75
2023/05/16 03:57:46;;;;;;;19.67;2.70;;;9.00;99.90;;;;;;4942929;29;20039;-75
2023/05/16 04:00:13;;;;;;;16.50;2.53;;;9.10;99.90;;;;;;4944926;29;20051;-75
2023/05/16 04:02:39;;;;;;;14.48;2.42;;;9.10;99.90;;;;;;4949178;28;20066;-75
2023/05/16 04:05:07;;;;;;;20.92;2.40;;;9.20;99.90;;;;;;4951815;29;20095;-75
2023/05/16 04:07:32;;;;;;;14.45;2.50;;;9.20;99.90;;;;;;4955329;28;20050;-76
2023/05/16 04:09:58;;;;;;;20.30;2.15;;;9.20;99.90;;;;;;4942477;29;20071;-75
2023/05/16 04:12:24;;;;;;;15.40;1.80;;;9.20;99.90;;;;;;4951485;28;20127;-76
2023/05/16 04:14:49;;;;;;;14.25;2.10;;;9.20;99.90;;;;;;4948950;29;20225;-75
2023/05/16 04:17:15;;;;;;;12.52;2.28;;;9.20;99.90;;;;;;4954767;28;20029;-75
2023/05/16 04:19:41;;;;;;;13.43;1.77;;;9.20;99.90;;;;;;4945853;29;20031;-75
2023/05/16 04:22:06;;;;;;;11.30;2.40;;;9.20;99.90;;;;;;4948932;29;20050;-75
2023/05/16 04:24:32;;;;;;;14.63;2.00;;;9.20;99.90;;;;;;4950653;28;20070;-75
2023/05/16 04:26:58;;;;;;;12.95;1.73;;;9.20;99.90;;;;;;4954526;29;20087;-75
2023/05/16 04:29:24;;;;;;;13.35;1.92;;;9.20;99.90;;;;;;4954470;28;20027;-75
2023/05/16 04:31:50;;;;;;;11.98;1.98;;;9.20;99.90;;;;;;4940513;29;20106;-75
2023/05/16 04:34:15;;;;;;;14.10;2.03;;;9.20;99.90;;;;;;4950180;29;20546;-75
2023/05/16 04:36:41;;;;;;;9.27;1.50;;;9.30;99.90;;;;;;4945697;28;20035;-75
2023/05/16 04:39:07;;;;;;;9.93;1.95;;;9.30;99.90;;;;;;4939784;28;20094;-75
2023/05/16 04:41:33;;;;;;;9.48;1.90;;;9.30;99.90;;;;;;4942594;28;20046;-75
2023/05/16 04:44:03;;;;;;;14.50;2.00;;;9.30;99.90;;;;;;4946907;29;20023;-75
2023/05/16 04:46:29;;;;;;;13.93;1.70;;;9.40;99.90;;;;;;4940320;28;20027;-75
2023/05/16 04:48:54;;;;;;;14.40;1.98;;;9.40;99.90;;;;;;4936156;29;20107;-75
2023/05/16 04:51:20;;;;;;;11.27;1.83;;;9.40;99.90;;;;;;4949846;29;20035;-76
2023/05/16 04:53:46;;;;;;;13.55;1.90;;;9.40;99.90;;;;;;4953910;28;20529;-76
2023/05/16 04:56:12;;;;;;;13.93;1.70;;;9.50;99.90;;;;;;4952206;29;20115;-75
2023/05/16 04:58:37;;;;;;;11.10;1.83;;;9.40;99.90;;;;;;4941205;29;20027;-76
2023/05/16 05:01:03;;;;;;;13.27;2.10;;;9.50;99.90;;;;;;4941678;29;20023;-76
2023/05/16 05:03:29;;;;;;;13.50;2.08;;;9.50;99.90;;;;;;4951554;29;20223;-76
2023/05/16 05:05:54;;;;;;;14.40;2.17;;;9.50;99.90;;;;;;4947195;28;20038;-76
2023/05/16 05:08:20;;;;;;;19.38;2.38;;;9.50;99.90;;;;;;4950624;28;20102;-76
2023/05/16 05:10:46;;;;;;;10.70;1.48;;;9.50;99.90;;;;;;4951652;29;20060;-76
2023/05/16 05:13:12;;;;;;;16.90;2.05;;;9.50;99.90;;;;;;4949562;28;20030;-76
2023/05/16 05:15:37;;;;;;;12.55;2.00;;;9.50;99.90;;;;;;4951429;29;20027;-76
2023/05/16 05:18:03;;;;;;;15.15;1.80;;;9.60;99.90;;;;;;4947597;28;20023;-76
2023/05/16 05:20:29;;;;;;;12.82;1.70;;;9.60;99.90;;;;;;4951304;28;20027;-76
2023/05/16 05:22:54;;;;;;;11.00;1.63;;;9.60;99.90;;;;;;4952296;28;20372;-76
2023/05/16 05:25:20;;;;;;;11.00;1.60;;;9.70;99.90;;;;;;4945270;29;20023;-75
2023/05/16 05:27:46;;;;;;;13.05;1.90;;;9.70;99.90;;;;;;4950154;29;20035;-76
2023/05/16 05:30:11;;;;;;;8.52;1.60;;;9.80;99.90;;;;;;4952352;29;20378;-75
2023/05/16 05:32:37;;;;;;;11.65;1.50;;;9.80;99.90;;;;;;4949944;29;20031;-74
2023/05/16 05:35:03;;;;;;;12.82;1.67;;;9.80;99.90;;;;;;4951766;29;20027;-75
2023/05/16 05:37:29;;;;;;;7.70;1.52;;;9.90;99.90;;;;;;4948829;29;20058;-75
2023/05/16 05:39:55;;;;;;;9.63;1.63;;;9.90;99.90;;;;;;4945580;29;20046;-75
2023/05/16 05:42:21;;;;;;;10.88;1.50;;;10.00;99.90;;;;;;4947498;29;20138;-75
2023/05/16 05:44:46;;;;;;;8.05;1.55;;;10.00;99.90;;;;;;4937732;29;20487;-75
2023/05/16 05:47:12;;;;;;;20.00;2.13;;;10.00;99.90;;;;;;4947960;29;20119;-75
2023/05/16 05:49:38;;;;;;;11.40;1.92;;;10.10;99.90;;;;;;4933765;28;20692;-75
2023/05/16 05:52:04;;;;;;;10.50;1.45;;;10.10;99.90;;;;;;4947360;28;20214;-75
2023/05/16 05:54:30;;;;;;;16.60;1.83;;;10.10;99.90;;;;;;4946006;29;20027;-75
2023/05/16 05:56:58;;;;;;;11.43;1.50;;;10.20;99.90;;;;;;4939181;28;20052;-75
2023/05/16 05:59:24;;;;;;;11.18;1.50;;;10.20;99.90;;;;;;4951406;29;20485;-75
2023/05/16 06:01:51;;;;;;;7.13;1.30;;;10.20;99.90;;;;;;4951388;29;20035;-75
2023/05/16 06:04:19;;;;;;;14.75;2.72;;;10.20;99.90;;;;;;4952540;28;20630;-75
2023/05/16 06:06:45;;;;;;;11.82;1.98;;;10.30;99.90;;;;;;4952393;28;20031;-75
2023/05/16 06:09:12;;;;;;;7.88;1.55;;;10.30;99.90;;;;;;4950083;28;20054;-75
2023/05/16 06:11:38;;;;;;;12.63;1.40;;;10.40;99.90;;;;;;4951503;28;20551;-75
2023/05/16 06:14:04;;;;;;;11.80;1.67;;;10.40;99.90;;;;;;4950643;29;20038;-75
2023/05/16 06:16:30;;;;;;;17.88;2.10;;;10.40;99.90;;;;;;4951526;29;20023;-75
2023/05/16 06:18:55;;;;;;;9.50;1.45;;;10.50;99.90;;;;;;4953178;29;20031;-75
2023/05/16 06:21:21;;;;;;;8.15;1.50;;;10.60;99.90;;;;;;4949336;28;20398;-75
2023/05/16 06:23:47;;;;;;;10.05;1.75;;;10.60;99.90;;;;;;4949779;29;20066;-75
2023/05/16 06:26:12;;;;;;;13.52;1.75;;;10.60;99.90;;;;;;4967206;28;20110;-75
2023/05/16 06:28:38;;;;;;;7.13;1.40;;;10.70;99.90;;;;;;4952827;29;20024;-75
2023/05/16 06:31:03;;;;;;;10.48;1.92;;;10.80;99.90;;;;;;4947572;28;20043;-75
2023/05/16 06:33:29;;;;;;;9.60;1.42;;;10.80;99.90;;;;;;4959286;28;20038;-75
2023/05/16 06:35:55;;;;;;;6.80;1.33;;;10.80;99.90;;;;;;4951737;29;20031;-75
2023/05/16 06:38:21;;;;;;;8.85;1.38;;;10.80;99.90;;;;;;4953307;29;20094;-75
2023/05/16 06:40:46;;;;;;;7.50;1.10;;;10.90;99.90;;;;;;4956653;29;20542;-75
2023/05/16 06:43:12;;;;;;;8.23;1.55;;;10.90;99.90;;;;;;4956251;28;20033;-75
2023/05/16 06:45:37;;;;;;;9.52;1.40;;;11.00;99.90;;;;;;4953112;29;20056;-75
2023/05/16 06:48:06;;;;;;;11.00;1.63;;;11.10;99.90;;;;;;4946787;29;20026;-76
2023/05/16 06:50:32;;;;;;;13.57;1.80;;;11.20;99.90;;;;;;4956448;28;20030;-75
2023/05/16 06:52:57;;;;;;;6.00;1.50;;;11.30;99.90;;;;;;4955777;28;20054;-75
2023/05/16 06:55:23;;;;;;;6.90;1.30;;;11.40;99.90;;;;;;4950336;29;20094;-75
2023/05/16 06:57:48;;;;;;;8.52;1.42;;;11.40;99.90;;;;;;4949364;28;20031;-75
2023/05/16 07:00:14;;;;;;;9.88;1.63;;;11.50;99.90;;;;;;4954064;29;20428;-77
2023/05/16 07:02:40;;;;;;;6.03;1.35;;;11.50;99.90;;;;;;4944828;29;20027;-76
2023/05/16 07:05:06;;;;;;;8.13;1.17;;;11.60;99.90;;;;;;4951797;29;20415;-76
2023/05/16 07:07:32;;;;;;;8.05;1.45;;;11.60;99.90;;;;;;4955031;28;20037;-76
2023/05/16 07:09:57;;;;;;;7.30;1.27;;;11.70;99.90;;;;;;4946981;29;20024;-76
2023/05/16 07:12:23;;;;;;;6.20;1.35;;;11.70;99.90;;;;;;4947648;29;20534;-76
2023/05/16 07:14:49;;;;;;;14.30;1.88;;;11.80;99.90;;;;;;4955728;28;20050;-75
2023/05/16 07:17:15;;;;;;;8.65;1.52;;;11.90;99.90;;;;;;4943747;28;20031;-75
2023/05/16 07:19:40;;;;;;;10.52;1.55;;;11.80;99.90;;;;;;4937238;29;20522;-75
2023/05/16 07:22:06;;;;;;;13.20;1.50;;;11.90;99.90;;;;;;4947979;29;20023;-75
2023/05/16 07:24:32;;;;;;;10.80;1.20;;;12.00;99.90;;;;;;4942193;29;20531;-76
2023/05/16 07:26:57;;;;;;;10.05;1.50;;;12.20;99.90;;;;;;4939000;29;20024;-75
2023/05/16 07:29:24;;;;;;;8.07;1.35;;;12.30;99.90;;;;;;4964104;28;20525;-75
2023/05/16 07:31:49;;;;;;;13.43;1.60;;;12.50;99.90;;;;;;4945986;29;20083;-75
2023/05/16 07:34:15;;;;;;;10.73;1.35;;;12.60;99.90;;;;;;4946292;29;20016;-74
2023/05/16 07:36:41;;;;;;;7.20;1.17;;;12.70;99.90;;;;;;4942187;29;20032;-74
2023/05/16 07:39:06;;;;;;;8.35;1.40;;;12.70;99.90;;;;;;4939143;29;20035;-74
2023/05/16 07:41:32;;;;;;;10.05;1.17;;;12.70;99.90;;;;;;4939175;29;20020;-75
2023/05/16 07:43:58;;;;;;;9.25;1.50;;;12.80;99.90;;;;;;4940969;29;20398;-74
2023/05/16 07:46:24;;;;;;;7.40;1.30;;;12.80;99.90;;;;;;4940657;29;20023;-74
2023/05/16 07:48:49;;;;;;;10.20;1.80;;;12.80;99.90;;;;;;4942424;29;20028;-75
2023/05/16 07:51:15;;;;;;;8.20;1.80;;;12.90;99.90;;;;;;4964777;28;20031;-75
2023/05/16 07:53:40;;;;;;;8.80;1.80;;;13.00;99.90;;;;;;4939789;29;20024;-75
2023/05/16 07:56:07;;;;;;;10.00;1.17;;;13.00;99.90;;;;;;4950110;29;20062;-75
2023/05/16 07:58:33;;;;;;;9.57;1.20;;;13.00;99.90;;;;;;4951374;29;20125;-74
2023/05/16 08:00:58;;;;;;;8.95;1.50;;;13.20;99.90;;;;;;4953654;28;20056;-74
2023/05/16 08:03:24;;;;;;;11.80;1.55;;;13.40;99.90;;;;;;4944196;28;20031;-73
2023/05/16 08:05:50;;;;;;;6.22;1.20;;;13.50;99.90;;;;;;4943637;29;20027;-74
2023/05/16 08:08:16;;;;;;;7.32;2.03;;;13.50;99.90;;;;;;4945850;28;20501;-74
2023/05/16 08:10:42;;;;;;;8.13;1.63;;;13.40;99.90;;;;;;4951746;29;20063;-74
2023/05/16 08:13:08;;;;;;;5.63;1.27;;;13.40;99.90;;;;;;4942818;28;20023;-74
2023/05/16 08:15:34;;;;;;;7.63;1.20;;;13.40;99.90;;;;;;4953717;28;20029;-75
2023/05/16 08:18:00;;;;;;;7.03;1.40;;;13.30;99.90;;;;;;4948406;29;20043;-75
2023/05/16 08:20:26;;;;;;;5.65;1.25;;;13.30;99.90;;;;;;4947510;28;20043;-75
2023/05/16 08:22:53;;;;;;;9.90;1.23;;;13.30;99.90;;;;;;4954741;28;20110;-75
2023/05/16 08:25:19;;;;;;;5.82;1.02;;;13.40;99.90;;;;;;4945800;28;20019;-75
2023/05/16 08:27:45;;;;;;;5.68;1.10;;;13.40;99.90;;;;;;4952145;29;20045;-75
2023/05/16 08:30:11;;;;;;;5.57;1.38;;;13.60;99.90;;;;;;4945285;29;20430;-75
2023/05/16 08:32:37;;;;;;;9.15;1.50;;;13.80;99.90;;;;;;4941477;28;20028;-75
2023/05/16 08:35:03;;;;;;;12.60;1.58;;;14.00;99.90;;;;;;4942478;29;20019;-75
2023/05/16 08:37:29;;;;;;;6.30;1.20;;;14.20;99.90;;;;;;4952417;28;20042;-75
2023/05/16 08:39:54;;;;;;;8.48;1.30;;;14.30;99.90;;;;;;4951622;28;20027;-75
2023/05/16 08:42:20;;;;;;;7.93;1.45;;;14.30;99.90;;;;;;4949579;29;20030;-75
2023/05/16 08:44:46;;;;;;;8.00;1.17;;;14.40;99.90;;;;;;4943946;28;20099;-75
2023/05/16 08:47:17;;;;;;;7.60;1.63;;;14.60;99.90;;;;;;4942643;29;20024;-75
2023/05/16 08:49:46;;;;;;;5.78;1.42;;;14.70;99.90;;;;;;4945946;29;20118;-75
2023/05/16 08:52:14;;;;;;;9.07;1.52;;;14.70;99.90;;;;;;4953980;29;20110;-75
2023/05/16 08:54:40;;;;;;;8.27;1.08;;;14.70;99.90;;;;;;4954029;28;20023;-75
2023/05/16 08:57:07;;;;;;;9.38;1.33;;;14.60;99.90;;;;;;4945511;28;20102;-75
2023/05/16 08:59:33;;;;;;;5.47;0.98;;;14.50;99.90;;;;;;4953625;28;20101;-75
2023/05/16 09:02:03;;;;;;;8.48;1.30;;;14.40;99.90;;;;;;4952513;29;20034;-75
2023/05/16 09:04:30;;;;;;;6.88;1.10;;;14.40;99.90;;;;;;4951933;29;20030;-76
2023/05/16 09:06:55;;;;;;;8.82;1.40;;;14.40;99.90;;;;;;4947201;28;20035;-75
2023/05/16 09:09:21;;;;;;;9.05;1.80;;;14.60;99.90;;;;;;4953925;29;20359;-75
2023/05/16 09:11:46;;;;;;;9.02;1.25;;;14.70;99.90;;;;;;4953885;29;20158;-75
2023/05/16 09:14:13;;;;;;;8.85;1.15;;;14.90;99.90;;;;;;4953907;28;20085;-75
2023/05/16 09:16:38;;;;;;;5.97;1.05;;;14.80;99.90;;;;;;4942367;28;20038;-75
2023/05/16 09:19:04;;;;;;;7.57;1.13;;;14.70;99.90;;;;;;4942587;29;20386;-75
2023/05/16 09:21:34;;;;;;;9.52;1.25;;;14.70;99.90;;;;;;4944599;28;20015;-75
2023/05/16 09:24:04;;;;;;;6.18;1.27;;;14.80;99.90;;;;;;4953690;28;20034;-75
2023/05/16 09:26:31;;;;;;;7.47;1.20;;;14.80;99.90;;;;;;4943227;29;20486;-75
2023/05/16 09:28:57;;;;;;;9.30;1.33;;;15.00;99.90;;;;;;4953886;28;20038;-75
2023/05/16 09:31:30;;;;;;;6.30;1.23;;;15.10;99.90;;;;;;4935410;28;20483;-76
2023/05/16 09:33:56;;;;;;;5.50;1.23;;;15.10;99.90;;;;;;4948288;29;20023;-76
2023/05/16 09:36:22;;;;;;;6.05;1.20;;;15.10;99.90;;;;;;4935984;28;20090;-75
2023/05/16 09:38:49;;;;;;;4.70;1.02;;;15.20;99.90;;;;;;4945816;29;20054;-76
2023/05/16 09:41:15;;;;;;;8.57;1.50;;;15.40;99.90;;;;;;4945249;28;20020;-75
2023/05/16 09:43:42;;;;;;;9.32;1.30;;;15.30;99.90;;;;;;4953391;28;20037;-75
2023/05/16 09:46:11;;;;;;;5.30;1.35;;;15.30;99.90;;;;;;4946050;29;20506;-76
2023/05/16 09:48:40;;;;;;;6.15;1.08;;;15.40;99.90;;;;;;4948862;29;20043;-75
2023/05/16 09:51:07;;;;;;;6.78;0.90;;;15.50;99.90;;;;;;4935458;29;20062;-77
2023/05/16 09:53:33;;;;;;;6.10;1.20;;;15.70;99.90;;;;;;4934395;29;20063;-75
2023/05/16 09:56:06;;;;;;;7.07;1.20;;;15.70;99.90;;;;;;4939737;29;20462;-75
2023/05/16 09:58:34;;;;;;;8.43;1.27;;;15.80;99.90;;;;;;4951720;29;20027;-75
2023/05/16 10:01:01;;;;;;;7.40;1.00;;;15.90;99.90;;;;;;4952098;28;20099;-75
2023/05/16 10:03:27;;;;;;;7.70;1.30;;;15.90;99.90;;;;;;4950910;29;20024;-75
2023/05/16 10:05:54;;;;;;;11.23;1.33;;;15.90;99.90;;;;;;4952973;28;20094;-75
2023/05/16 10:08:21;;;;;;;7.35;1.30;;;15.90;99.90;;;;;;4956269;28;20459;-75
2023/05/16 10:10:55;;;;;;;10.80;1.83;;;15.90;99.90;;;;;;4957236;28;20023;-75
2023/05/16 10:13:23;;;;;;;7.32;1.30;;;15.70;99.90;;;;;;4956876;28;20022;-75
2023/05/16 10:15:49;;;;;;;4.35;1.10;;;15.70;99.90;;;;;;4950620;29;20035;-75
2023/05/16 10:18:17;;;;;;;9.85;1.55;;;15.80;99.90;;;;;;4949555;28;20479;-75
2023/05/16 10:20:47;;;;;;;5.85;1.33;;;15.90;99.90;;;;;;4946826;29;20030;-75
2023/05/16 10:23:18;;;;;;;6.70;1.20;;;16.10;99.90;;;;;;4947384;28;20090;-75
2023/05/16 10:25:45;;;;;;;4.00;0.80;;;16.10;99.90;;;;;;4946147;28;20446;-75
2023/05/16 10:28:12;;;;;;;7.07;1.35;;;16.00;99.90;;;;;;4939840;28;20023;-75
2023/05/16 10:30:40;;;;;;;6.65;1.20;;;16.00;99.90;;;;;;4937169;29;20024;-75
2023/05/16 10:33:07;;;;;;;6.82;1.52;;;15.90;99.90;;;;;;4943205;29;20085;-75
2023/05/16 10:35:33;;;;;;;8.73;1.20;;;15.90;99.90;;;;;;4945070;28;20075;-75
2023/05/16 10:38:00;;;;;;;7.70;1.20;;;15.90;99.90;;;;;;4941789;29;20143;-75
2023/05/16 10:40:27;;;;;;;7.65;1.23;;;16.00;99.90;;;;;;4955487;29;20034;-75
2023/05/16 10:42:56;;;;;;;5.40;1.30;;;16.10;99.90;;;;;;4953888;29;20481;-74
2023/05/16 10:45:23;;;;;;;6.28;1.48;;;16.20;99.90;;;;;;4956512;28;20536;-74
2023/05/16 10:48:08;;;;;;;7.43;1.20;;;16.00;99.90;;;;;;4952215;28;20034;-74
2023/05/16 10:50:42;;;;;;;10.15;1.30;;;16.00;99.90;;;;;;4949394;28;20035;-75
2023/05/16 10:53:13;;;;;;;7.50;1.20;;;15.80;99.90;;;;;;4953710;29;20015;-75
2023/05/16 10:55:39;;;;;;;8.38;1.15;;;15.50;99.90;;;;;;4945852;29;20034;-74
2023/05/16 10:58:05;;;;;;;5.60;1.20;;;15.40;99.90;;;;;;4942928;29;20062;-73
2023/05/16 11:00:31;;;;;;;6.50;1.05;;;15.40;99.90;;;;;;4947496;29;20055;-75
2023/05/16 11:03:18;;;;;;;6.20;1.23;;;15.60;99.90;;;;;;4950609;29;20078;-74
2023/05/16 11:05:52;;;;;;;7.25;1.17;;;15.80;99.90;;;;;;4950228;29;20117;-75
2023/05/16 11:08:18;;;;;;;6.30;1.10;;;16.10;99.90;;;;;;4943983;29;20024;-74
2023/05/16 11:10:44;;;;;;;8.32;1.45;;;16.30;99.90;;;;;;4947677;29;20268;-74
2023/05/16 11:13:09;;;;;;;7.90;1.20;;;16.40;99.60;;;;;;4952630;29;20030;-74
2023/05/16 11:15:35;;;;;;;6.90;0.90;;;16.30;98.40;;;;;;4945603;28;20098;-74
2023/05/16 11:18:09;;;;;;;5.63;1.15;;;16.10;97.80;;;;;;4943238;29;20455;-74
2023/05/16 11:20:36;;;;;;;5.68;1.05;;;16.00;98.50;;;;;;4950509;28;20052;-74
2023/05/16 11:23:17;;;;;;;3.88;1.00;;;16.10;97.50;;;;;;4950616;29;20406;-74
2023/05/16 11:25:45;;;;;;;7.63;1.00;;;16.20;98.40;;;;;;4945994;29;20027;-74
2023/05/16 11:28:12;;;;;;;6.85;1.20;;;16.40;97.40;;;;;;4955451;28;20035;-73
2023/05/16 11:30:51;;;;;;;6.60;1.25;;;16.30;97.60;;;;;;4954026;29;20034;-74
2023/05/16 11:33:17;;;;;;;6.15;0.98;;;16.40;97.00;;;;;;4946466;29;20462;-74
2023/05/16 11:35:43;;;;;;;5.65;1.10;;;16.50;96.30;;;;;;4952937;28;20371;-74
2023/05/16 11:38:15;;;;;;;7.55;1.20;;;16.40;94.00;;;;;;4952549;28;20035;-74
2023/05/16 11:40:44;;;;;;;7.60;1.40;;;16.20;96.20;;;;;;4952572;29;20052;-74
2023/05/16 11:43:11;;;;;;;6.00;1.13;;;16.30;95.40;;;;;;4953438;29;20023;-74
2023/05/16 11:45:36;;;;;;;5.82;1.15;;;16.50;93.80;;;;;;4955051;28;20102;-74
2023/05/16 11:48:03;;;;;;;5.72;1.15;;;16.40;93.60;;;;;;4952370;29;20588;-74
2023/05/16 11:50:32;;;;;;;7.93;1.20;;;16.30;94.00;;;;;;4953477;29;20030;-74
2023/05/16 11:52:58;;;;;;;6.03;1.10;;;16.40;94.60;;;;;;4942390;28;20457;-74
2023/05/16 11:55:26;;;;;;;9.07;0.90;;;16.50;94.60;;;;;;4941716;29;20035;-74
2023/05/16 11:57:53;;;;;;;6.07;1.25;;;16.80;92.40;;;;;;4939819;29;20054;-74
2023/05/16 12:00:21;;;;;;;5.72;1.00;;;16.80;93.10;;;;;;4951456;29;20055;-74
2023/05/16 12:02:48;;;;;;;7.47;1.17;;;16.90;93.30;;;;;;4954706;28;20034;-74
2023/05/16 12:05:15;;;;;;;5.25;0.98;;;16.90;91.00;;;;;;4951698;28;20020;-74
2023/05/16 12:07:43;;;;;;;2.83;0.77;;;16.80;91.50;;;;;;4949168;29;20038;-74
2023/05/16 12:10:11;;;;;;;6.70;0.90;;;16.90;87.50;;;;;;4949784;28;20376;-74
2023/05/16 12:12:40;;;;;;;6.65;1.05;;;16.90;89.20;;;;;;4942927;28;20499;-74
2023/05/16 12:15:07;;;;;;;7.93;1.33;;;17.00;89.00;;;;;;4953936;29;20023;-74
2023/05/16 12:17:34;;;;;;;5.10;0.80;;;17.20;90.10;;;;;;4954530;28;20035;-74
2023/05/16 12:20:01;;;;;;;3.53;0.95;;;17.30;85.80;;;;;;4954228;28;20051;-74
2023/05/16 12:22:26;;;;;;;3.28;1.00;;;17.30;83.60;;;;;;4952231;29;20090;-74
2023/05/16 12:24:52;;;;;;;7.55;1.05;;;17.40;82.30;;;;;;4947812;29;20432;-74
2023/05/16 12:27:22;;;;;;;4.68;1.00;;;17.30;79.00;;;;;;4954091;29;20082;-74
2023/05/16 12:29:48;;;;;;;5.70;1.10;;;17.20;79.50;;;;;;4943669;29;20072;-74
2023/05/16 12:32:18;;;;;;;3.60;1.05;;;17.20;81.90;;;;;;4950345;28;20061;-74
2023/05/16 12:34:51;;;;;;;5.25;1.20;;;17.30;82.50;;;;;;4944226;28;20059;-74
2023/05/16 12:37:17;;;;;;;9.52;1.30;;;17.20;82.00;;;;;;4940998;29;20023;-74
2023/05/16 12:39:45;;;;;;;5.43;1.20;;;17.20;83.60;;;;;;4947701;28;20566;-73
2023/05/16 12:42:15;;;;;;;6.63;1.20;;;17.20;84.80;;;;;;4944805;29;20019;-74
2023/05/16 12:44:44;;;;;;;5.88;1.13;;;17.30;84.20;;;;;;4936922;29;20549;-74